Terminal Aerodrome Forecast
Issued by NWS

Current Version | Previous Version | Graphics & Text | Print | Product List | Glossary On
Versions: 1 2 3 4 5 6 7 8 9 10 11 12 13 14 15 16 17 18 19
907
FTUS41 KILN 211520 AAA
TAFLCK
TAF AMD
KLCK 211520Z 2115/2212 10006KT P6SM SCT040 BKN080
      TEMPO 2115/2116 4SM -TSRA BKN040CB
     FM211800 12006KT P6SM VCTS SCT040CB
     FM212200 17006KT P6SM VCTS BKN040CB
     FM220300 18008KT P6SM VCSH BKN040
      AMD NOT SKED=

USA.gov is the U.S. government's official web portal to all federal, state and local government web resources and services.